sensor_id;sensor_type;location;lat;lon;timestamp;noise_LAeq;noise_LA_min;noise_LA_max;noise_LA01;noise_LA95
73663;Laerm;61956;52.540;13.382;2023-07-13T00:01:48;64.47;59.79;67.01;;
73663;Laerm;61956;52.540;13.382;2023-07-13T00:04:23;64.73;60.64;67.15;;
73663;Laerm;61956;52.540;13.382;2023-07-13T00:06:53;64.33;60.32;67.26;;
73663;Laerm;61956;52.540;13.382;2023-07-13T00:09:23;64.68;59.98;67.10;;
73663;Laerm;61956;52.540;13.382;2023-07-13T00:11:55;64.76;60.42;67.07;;
73663;Laerm;61956;52.540;13.382;2023-07-13T00:14:27;64.76;60.45;67.23;;
73663;Laerm;61956;52.540;13.382;2023-07-13T00:16:56;64.70;60.18;67.10;;
73663;Laerm;61956;52.540;13.382;2023-07-13T00:19:29;64.73;60.50;67.65;;
73663;Laerm;61956;52.540;13.382;2023-07-13T00:21:58;64.75;60.14;67.13;;
73663;Laerm;61956;52.540;13.382;2023-07-13T00:24:27;64.76;59.24;67.09;;
73663;Laerm;61956;52.540;13.382;2023-07-13T00:26:56;64.69;60.66;67.96;;
73663;Laerm;61956;52.540;13.382;2023-07-13T00:29:26;64.78;59.78;67.27;;
73663;Laerm;61956;52.540;13.382;2023-07-13T00:31:55;64.74;59.35;67.30;;
73663;Laerm;61956;52.540;13.382;2023-07-13T00:34:24;64.77;59.61;67.41;;
73663;Laerm;61956;52.540;13.382;2023-07-13T00:36:56;64.73;59.75;67.05;;
73663;Laerm;61956;52.540;13.382;2023-07-13T00:39:25;64.73;60.23;67.05;;
73663;Laerm;61956;52.540;13.382;2023-07-13T00:41:55;64.72;60.73;67.04;;
73663;Laerm;61956;52.540;13.382;2023-07-13T00:44:25;64.76;58.65;67.07;;
73663;Laerm;61956;52.540;13.382;2023-07-13T00:46:56;64.74;60.45;67.12;;
73663;Laerm;61956;52.540;13.382;2023-07-13T00:49:29;64.77;59.98;67.40;;
73663;Laerm;61956;52.540;13.382;2023-07-13T00:52:06;64.73;59.20;67.01;;
73663;Laerm;61956;52.540;13.382;2023-07-13T00:54:43;64.71;60.66;67.39;;
73663;Laerm;61956;52.540;13.382;2023-07-13T00:57:18;64.68;59.21;67.16;;
73663;Laerm;61956;52.540;13.382;2023-07-13T00:59:53;64.73;60.03;67.31;;
73663;Laerm;61956;52.540;13.382;2023-07-13T01:02:24;64.74;59.23;66.98;;
73663;Laerm;61956;52.540;13.382;2023-07-13T01:04:57;64.74;59.33;67.22;;
73663;Laerm;61956;52.540;13.382;2023-07-13T01:07:30;64.75;60.01;67.23;;
73663;Laerm;61956;52.540;13.382;2023-07-13T01:09:59;64.72;60.50;67.05;;
73663;Laerm;61956;52.540;13.382;2023-07-13T01:12:28;64.71;59.41;67.32;;
73663;Laerm;61956;52.540;13.382;2023-07-13T01:14:58;64.70;60.64;67.10;;
73663;Laerm;61956;52.540;13.382;2023-07-13T01:17:28;64.71;59.32;67.45;;
73663;Laerm;61956;52.540;13.382;2023-07-13T01:19:59;64.72;58.68;67.16;;
73663;Laerm;61956;52.540;13.382;2023-07-13T01:22:32;64.72;59.88;67.55;;
73663;Laerm;61956;52.540;13.382;2023-07-13T01:25:02;64.70;59.97;67.56;;
73663;Laerm;61956;52.540;13.382;2023-07-13T01:27:31;64.61;59.62;67.19;;
73663;Laerm;61956;52.540;13.382;2023-07-13T01:32:31;64.67;59.44;67.18;;
73663;Laerm;61956;52.540;13.382;2023-07-13T01:35:00;64.67;58.77;67.17;;
73663;Laerm;61956;52.540;13.382;2023-07-13T01:37:32;64.68;59.65;67.45;;
73663;Laerm;61956;52.540;13.382;2023-07-13T01:40:02;64.65;59.21;67.01;;
73663;Laerm;61956;52.540;13.382;2023-07-13T01:42:31;64.66;59.17;67.23;;
73663;Laerm;61956;52.540;13.382;2023-07-13T01:45:01;64.60;58.00;67.12;;
73663;Laerm;61956;52.540;13.382;2023-07-13T01:47:30;64.59;59.01;67.20;;
73663;Laerm;61956;52.540;13.382;2023-07-13T01:49:59;64.62;59.53;67.46;;
73663;Laerm;61956;52.540;13.382;2023-07-13T01:52:31;64.62;59.42;67.24;;
73663;Laerm;61956;52.540;13.382;2023-07-13T01:55:00;64.62;59.06;67.11;;
73663;Laerm;61956;52.540;13.382;2023-07-13T01:57:30;64.64;59.26;67.15;;
73663;Laerm;61956;52.540;13.382;2023-07-13T01:59:59;64.56;59.56;67.64;;
73663;Laerm;61956;52.540;13.382;2023-07-13T02:02:29;64.56;59.71;67.05;;
73663;Laerm;61956;52.540;13.382;2023-07-13T02:04:58;64.60;60.05;67.47;;
73663;Laerm;61956;52.540;13.382;2023-07-13T02:07:27;64.63;58.63;67.11;;
73663;Laerm;61956;52.540;13.382;2023-07-13T02:09:59;64.60;59.81;67.24;;
73663;Laerm;61956;52.540;13.382;2023-07-13T02:12:28;64.55;59.75;67.76;;
73663;Laerm;61956;52.540;13.382;2023-07-13T02:14:57;64.56;59.97;67.46;;
73663;Laerm;61956;52.540;13.382;2023-07-13T02:17:27;64.60;59.23;67.12;;
73663;Laerm;61956;52.540;13.382;2023-07-13T02:19:56;64.56;59.83;67.26;;
73663;Laerm;61956;52.540;13.382;2023-07-13T02:22:25;64.44;59.75;67.58;;
73663;Laerm;61956;52.540;13.382;2023-07-13T02:24:59;64.43;59.94;66.94;;
73663;Laerm;61956;52.540;13.382;2023-07-13T02:27:29;64.57;58.73;67.29;;
73663;Laerm;61956;52.540;13.382;2023-07-13T02:29:59;64.59;59.57;67.71;;
73663;Laerm;61956;52.540;13.382;2023-07-13T02:32:29;64.57;59.26;67.35;;
73663;Laerm;61956;52.540;13.382;2023-07-13T02:34:58;64.52;59.64;67.30;;
73663;Laerm;61956;52.540;13.382;2023-07-13T02:37:29;64.49;59.87;67.15;;
73663;Laerm;61956;52.540;13.382;2023-07-13T02:40:01;64.45;59.72;67.53;;
73663;Laerm;61956;52.540;13.382;2023-07-13T02:42:36;64.51;59.79;67.04;;
73663;Laerm;61956;52.540;13.382;2023-07-13T02:45:07;64.49;60.26;67.43;;
73663;Laerm;61956;52.540;13.382;2023-07-13T02:47:37;64.51;59.41;67.47;;
73663;Laerm;61956;52.540;13.382;2023-07-13T02:50:07;64.49;58.67;67.37;;
73663;Laerm;61956;52.540;13.382;2023-07-13T02:52:36;64.43;58.90;67.44;;
73663;Laerm;61956;52.540;13.382;2023-07-13T02:55:09;64.41;59.17;67.26;;
73663;Laerm;61956;52.540;13.382;2023-07-13T02:57:39;64.48;59.88;67.39;;
73663;Laerm;61956;52.540;13.382;2023-07-13T03:00:10;64.45;59.48;67.14;;
73663;Laerm;61956;52.540;13.382;2023-07-13T03:02:40;64.50;59.34;67.40;;
73663;Laerm;61956;52.540;13.382;2023-07-13T03:05:10;64.40;59.45;66.96;;
73663;Laerm;61956;52.540;13.382;2023-07-13T03:07:42;64.39;59.16;67.14;;
73663;Laerm;61956;52.540;13.382;2023-07-13T03:10:14;64.31;59.38;66.96;;
73663;Laerm;61956;52.540;13.382;2023-07-13T03:12:48;64.37;58.76;66.91;;
73663;Laerm;61956;52.540;13.382;2023-07-13T03:15:24;64.36;60.10;66.91;;
73663;Laerm;61956;52.540;13.382;2023-07-13T03:17:55;64.37;59.71;67.11;;
73663;Laerm;61956;52.540;13.382;2023-07-13T03:20:24;64.28;59.95;66.94;;
73663;Laerm;61956;52.540;13.382;2023-07-13T03:22:53;64.34;59.76;67.00;;
73663;Laerm;61956;52.540;13.382;2023-07-13T03:25:25;64.36;59.25;67.16;;
73663;Laerm;61956;52.540;13.382;2023-07-13T03:27:54;64.31;59.39;67.31;;
73663;Laerm;61956;52.540;13.382;2023-07-13T03:30:24;64.16;59.46;67.16;;
73663;Laerm;61956;52.540;13.382;2023-07-13T03:32:53;64.13;59.68;67.10;;
73663;Laerm;61956;52.540;13.382;2023-07-13T03:35:23;64.18;60.23;67.44;;
73663;Laerm;61956;52.540;13.382;2023-07-13T03:37:52;64.23;59.87;70.67;;
73663;Laerm;61956;52.540;13.382;2023-07-13T03:40:21;64.17;59.76;67.02;;
73663;Laerm;61956;52.540;13.382;2023-07-13T03:42:54;64.15;59.70;67.81;;
73663;Laerm;61956;52.540;13.382;2023-07-13T03:45:23;64.16;59.83;66.97;;
73663;Laerm;61956;52.540;13.382;2023-07-13T03:47:52;64.15;59.46;66.92;;
73663;Laerm;61956;52.540;13.382;2023-07-13T03:50:21;64.13;59.29;67.04;;
73663;Laerm;61956;52.540;13.382;2023-07-13T03:52:51;64.09;59.52;67.55;;
73663;Laerm;61956;52.540;13.382;2023-07-13T03:55:20;64.01;59.87;67.03;;
73663;Laerm;61956;52.540;13.382;2023-07-13T03:57:59;64.11;59.34;66.78;;
73663;Laerm;61956;52.540;13.382;2023-07-13T04:00:28;64.10;59.97;67.37;;
73663;Laerm;61956;52.540;13.382;2023-07-13T04:02:57;64.15;59.93;67.06;;
73663;Laerm;61956;52.540;13.382;2023-07-13T04:05:27;64.06;59.85;66.88;;
73663;Laerm;61956;52.540;13.382;2023-07-13T04:07:56;64.15;59.82;67.25;;
73663;Laerm;61956;52.540;13.382;2023-07-13T04:10:25;64.07;59.66;66.98;;
73663;Laerm;61956;52.540;13.382;2023-07-13T04:12:57;64.01;60.05;66.93;;
73663;Laerm;61956;52.540;13.382;2023-07-13T04:15:29;63.82;60.27;66.62;;
73663;Laerm;61956;52.540;13.382;2023-07-13T04:17:59;64.04;59.76;66.83;;
73663;Laerm;61956;52.540;13.382;2023-07-13T04:20:29;63.92;60.00;67.66;;
73663;Laerm;61956;52.540;13.382;2023-07-13T04:22:58;64.04;59.36;66.74;;
73663;Laerm;61956;52.540;13.382;2023-07-13T04:25:28;64.07;58.55;66.75;;
73663;Laerm;61956;52.540;13.382;2023-07-13T04:28:00;63.99;59.55;66.97;;
73663;Laerm;61956;52.540;13.382;2023-07-13T04:30:29;63.88;59.68;66.83;;
73663;Laerm;61956;52.540;13.382;2023-07-13T04:32:58;64.07;59.73;66.81;;
73663;Laerm;61956;52.540;13.382;2023-07-13T04:35:27;64.07;59.77;67.02;;
73663;Laerm;61956;52.540;13.382;2023-07-13T04:37:57;64.07;59.68;66.98;;
73663;Laerm;61956;52.540;13.382;2023-07-13T04:40:28;64.06;60.31;67.09;;
73663;Laerm;61956;52.540;13.382;2023-07-13T04:42:59;64.02;59.69;66.95;;
73663;Laerm;61956;52.540;13.382;2023-07-13T04:45:28;64.08;59.18;66.96;;
73663;Laerm;61956;52.540;13.382;2023-07-13T04:47:58;64.01;59.15;66.94;;
73663;Laerm;61956;52.540;13.382;2023-07-13T04:50:27;64.10;59.70;66.73;;
73663;Laerm;61956;52.540;13.382;2023-07-13T04:52:56;64.02;59.82;66.79;;
73663;Laerm;61956;52.540;13.382;2023-07-13T04:55:25;63.92;59.69;67.14;;
73663;Laerm;61956;52.540;13.382;2023-07-13T04:57:59;64.00;60.13;67.32;;
73663;Laerm;61956;52.540;13.382;2023-07-13T05:00:29;64.06;59.76;66.99;;
73663;Laerm;61956;52.540;13.382;2023-07-13T05:02:59;64.06;59.05;66.66;;
73663;Laerm;61956;52.540;13.382;2023-07-13T05:05:28;64.01;60.07;70.72;;
73663;Laerm;61956;52.540;13.382;2023-07-13T05:07:57;63.86;60.66;69.73;;
73663;Laerm;61956;52.540;13.382;2023-07-13T05:10:26;63.88;60.77;72.45;;
73663;Laerm;61956;52.540;13.382;2023-07-13T05:12:56;64.61;61.94;69.46;;
73663;Laerm;61956;52.540;13.382;2023-07-13T05:15:27;64.30;61.83;68.88;;
73663;Laerm;61956;52.540;13.382;2023-07-13T05:17:56;64.67;61.77;71.31;;
73663;Laerm;61956;52.540;13.382;2023-07-13T05:20:26;64.62;62.06;72.86;;
73663;Laerm;61956;52.540;13.382;2023-07-13T05:22:55;64.37;62.00;69.32;;
73663;Laerm;61956;52.540;13.382;2023-07-13T05:25:24;64.08;61.72;68.33;;
73663;Laerm;61956;52.540;13.382;2023-07-13T05:27:53;64.05;61.30;67.59;;
73663;Laerm;61956;52.540;13.382;2023-07-13T05:30:22;63.52;61.19;67.09;;
73663;Laerm;61956;52.540;13.382;2023-07-13T05:32:54;63.67;60.93;67.12;;
73663;Laerm;61956;52.540;13.382;2023-07-13T05:35:23;64.08;60.23;71.28;;
73663;Laerm;61956;52.540;13.382;2023-07-13T05:37:52;64.32;59.95;72.20;;
73663;Laerm;61956;52.540;13.382;2023-07-13T05:40:21;64.03;60.35;67.78;;
73663;Laerm;61956;52.540;13.382;2023-07-13T05:42:50;63.80;60.08;66.50;;
73663;Laerm;61956;52.540;13.382;2023-07-13T05:45:20;63.76;60.47;67.60;;
73663;Laerm;61956;52.540;13.382;2023-07-13T05:47:49;66.13;61.08;75.37;;
73663;Laerm;61956;52.540;13.382;2023-07-13T05:50:21;66.45;61.45;75.66;;
73663;Laerm;61956;52.540;13.382;2023-07-13T05:52:50;67.53;61.59;75.12;;
73663;Laerm;61956;52.540;13.382;2023-07-13T05:55:20;65.70;61.71;71.50;;
73663;Laerm;61956;52.540;13.382;2023-07-13T05:57:49;65.70;61.35;73.40;;
73663;Laerm;61956;52.540;13.382;2023-07-13T06:00:19;66.07;60.98;74.42;;
73663;Laerm;61956;52.540;13.382;2023-07-13T06:02:48;66.07;61.14;77.20;;
73663;Laerm;61956;52.540;13.382;2023-07-13T06:05:20;65.36;62.30;75.00;;
73663;Laerm;61956;52.540;13.382;2023-07-13T06:07:49;63.76;59.87;68.74;;
73663;Laerm;61956;52.540;13.382;2023-07-13T06:10:18;64.07;60.78;70.48;;
73663;Laerm;61956;52.540;13.382;2023-07-13T06:12:47;64.19;60.52;68.41;;
73663;Laerm;61956;52.540;13.382;2023-07-13T06:15:17;64.10;61.05;68.31;;
73663;Laerm;61956;52.540;13.382;2023-07-13T06:17:46;64.47;60.26;69.43;;
73663;Laerm;61956;52.540;13.382;2023-07-13T06:20:16;64.48;61.57;68.79;;
73663;Laerm;61956;52.540;13.382;2023-07-13T06:22:47;64.19;61.36;68.71;;
73663;Laerm;61956;52.540;13.382;2023-07-13T06:25:17;64.39;61.35;68.51;;
73663;Laerm;61956;52.540;13.382;2023-07-13T06:27:46;64.47;60.22;69.99;;
73663;Laerm;61956;52.540;13.382;2023-07-13T06:30:15;63.95;60.56;66.67;;
73663;Laerm;61956;52.540;13.382;2023-07-13T06:32:44;64.00;60.60;67.33;;
73663;Laerm;61956;52.540;13.382;2023-07-13T06:35:14;63.86;60.14;66.73;;
73663;Laerm;61956;52.540;13.382;2023-07-13T06:37:43;64.01;60.48;67.70;;
73663;Laerm;61956;52.540;13.382;2023-07-13T06:40:16;63.81;60.69;68.90;;
73663;Laerm;61956;52.540;13.382;2023-07-13T06:42:45;63.80;59.99;66.54;;
73663;Laerm;61956;52.540;13.382;2023-07-13T06:45:14;63.72;60.66;68.25;;
73663;Laerm;61956;52.540;13.382;2023-07-13T06:47:43;63.77;60.69;67.76;;
73663;Laerm;61956;52.540;13.382;2023-07-13T06:50:13;64.04;59.78;78.13;;
73663;Laerm;61956;52.540;13.382;2023-07-13T06:52:42;63.77;59.70;67.59;;
73663;Laerm;61956;52.540;13.382;2023-07-13T06:55:11;63.70;60.74;71.46;;
73663;Laerm;61956;52.540;13.382;2023-07-13T06:57:43;63.80;60.78;66.35;;
73663;Laerm;61956;52.540;13.382;2023-07-13T07:00:14;63.69;59.62;66.28;;
73663;Laerm;61956;52.540;13.382;2023-07-13T07:02:45;63.75;58.66;69.28;;
73663;Laerm;61956;52.540;13.382;2023-07-13T07:05:14;65.02;60.29;79.78;;
73663;Laerm;61956;52.540;13.382;2023-07-13T07:07:43;64.80;60.24;77.73;;
73663;Laerm;61956;52.540;13.382;2023-07-13T07:10:12;63.16;60.22;67.93;;
73663;Laerm;61956;52.540;13.382;2023-07-13T07:12:44;63.20;59.72;70.81;;
73663;Laerm;61956;52.540;13.382;2023-07-13T07:15:14;63.05;59.58;68.20;;
73663;Laerm;61956;52.540;13.382;2023-07-13T07:17:43;62.99;60.18;65.48;;
73663;Laerm;61956;52.540;13.382;2023-07-13T07:20:13;63.17;59.64;67.52;;
73663;Laerm;61956;52.540;13.382;2023-07-13T07:22:42;63.00;60.12;65.32;;
73663;Laerm;61956;52.540;13.382;2023-07-13T07:25:12;63.12;59.87;66.09;;
73663;Laerm;61956;52.540;13.382;2023-07-13T07:27:44;63.73;60.72;66.39;;
73663;Laerm;61956;52.540;13.382;2023-07-13T07:30:13;63.65;59.70;73.38;;
73663;Laerm;61956;52.540;13.382;2023-07-13T07:32:44;62.93;58.18;65.85;;
73663;Laerm;61956;52.540;13.382;2023-07-13T07:35:16;63.12;59.54;65.89;;
73663;Laerm;61956;52.540;13.382;2023-07-13T07:37:46;63.30;59.74;66.14;;
73663;Laerm;61956;52.540;13.382;2023-07-13T07:40:15;63.15;59.64;65.85;;
73663;Laerm;61956;52.540;13.382;2023-07-13T07:42:50;63.00;59.83;65.87;;
73663;Laerm;61956;52.540;13.382;2023-07-13T07:45:21;63.09;59.64;65.84;;
73663;Laerm;61956;52.540;13.382;2023-07-13T07:47:50;63.16;59.70;66.15;;
73663;Laerm;61956;52.540;13.382;2023-07-13T07:50:21;63.41;59.62;66.02;;
73663;Laerm;61956;52.540;13.382;2023-07-13T07:52:50;63.45;59.58;66.24;;
73663;Laerm;61956;52.540;13.382;2023-07-13T07:55:19;63.50;59.46;65.95;;
73663;Laerm;61956;52.540;13.382;2023-07-13T07:57:54;63.48;59.92;65.96;;
73663;Laerm;61956;52.540;13.382;2023-07-13T08:00:23;63.41;59.88;66.30;;
73663;Laerm;61956;52.540;13.382;2023-07-13T08:02:52;63.61;60.14;67.83;;
73663;Laerm;61956;52.540;13.382;2023-07-13T08:05:22;63.68;60.72;70.15;;
73663;Laerm;61956;52.540;13.382;2023-07-13T08:07:51;63.49;59.77;66.03;;
73663;Laerm;61956;52.540;13.382;2023-07-13T08:10:20;63.57;60.39;66.23;;
73663;Laerm;61956;52.540;13.382;2023-07-13T08:12:52;63.35;59.57;66.97;;
73663;Laerm;61956;52.540;13.382;2023-07-13T08:15:22;63.44;60.42;66.06;;
73663;Laerm;61956;52.540;13.382;2023-07-13T08:17:53;63.52;59.97;66.12;;
73663;Laerm;61956;52.540;13.382;2023-07-13T08:20:22;63.47;60.21;65.83;;
73663;Laerm;61956;52.540;13.382;2023-07-13T08:22:52;63.49;60.17;66.46;;
73663;Laerm;61956;52.540;13.382;2023-07-13T08:25:21;63.46;60.05;66.21;;
73663;Laerm;61956;52.540;13.382;2023-07-13T08:27:53;63.52;59.53;66.07;;
73663;Laerm;61956;52.540;13.382;2023-07-13T08:30:22;63.47;59.34;66.66;;
73663;Laerm;61956;52.540;13.382;2023-07-13T08:32:53;63.44;59.92;66.38;;
73663;Laerm;61956;52.540;13.382;2023-07-13T08:35:22;63.50;59.63;66.24;;
73663;Laerm;61956;52.540;13.382;2023-07-13T08:37:52;63.44;59.90;66.41;;
73663;Laerm;61956;52.540;13.382;2023-07-13T08:40:25;63.42;60.16;66.10;;
73663;Laerm;61956;52.540;13.382;2023-07-13T08:42:59;64.45;60.43;71.38;;
73663;Laerm;61956;52.540;13.382;2023-07-13T08:45:38;65.37;61.06;72.59;;
73663;Laerm;61956;52.540;13.382;2023-07-13T08:48:14;64.49;60.58;72.12;;
73663;Laerm;61956;52.540;13.382;2023-07-13T08:50:55;65.14;61.26;71.09;;
73663;Laerm;61956;52.540;13.382;2023-07-13T08:53:34;64.21;60.24;70.01;;
73663;Laerm;61956;52.540;13.382;2023-07-13T08:56:11;64.30;60.78;69.55;;
73663;Laerm;61956;52.540;13.382;2023-07-13T08:58:51;63.47;60.11;70.05;;
73663;Laerm;61956;52.540;13.382;2023-07-13T09:01:32;63.71;59.98;70.20;;
73663;Laerm;61956;52.540;13.382;2023-07-13T09:04:09;63.46;60.36;68.68;;
73663;Laerm;61956;52.540;13.382;2023-07-13T09:07:03;63.34;59.96;66.21;;
73663;Laerm;61956;52.540;13.382;2023-07-13T09:09:47;63.21;59.66;65.81;;
73663;Laerm;61956;52.540;13.382;2023-07-13T09:12:30;63.33;60.17;66.89;;
73663;Laerm;61956;52.540;13.382;2023-07-13T09:15:23;63.33;60.41;68.14;;
73663;Laerm;61956;52.540;13.382;2023-07-13T09:17:55;63.29;60.40;65.77;;
73663;Laerm;61956;52.540;13.382;2023-07-13T09:20:30;63.37;60.66;66.23;;
73663;Laerm;61956;52.540;13.382;2023-07-13T09:23:07;63.28;59.86;65.64;;
73663;Laerm;61956;52.540;13.382;2023-07-13T09:25:42;63.10;60.07;65.46;;
73663;Laerm;61956;52.540;13.382;2023-07-13T09:28:19;63.33;60.23;65.94;;
73663;Laerm;61956;52.540;13.382;2023-07-13T09:31:03;63.38;59.87;66.18;;
73663;Laerm;61956;52.540;13.382;2023-07-13T09:33:33;63.43;59.61;66.20;;
73663;Laerm;61956;52.540;13.382;2023-07-13T09:36:21;63.38;59.77;66.68;;
73663;Laerm;61956;52.540;13.382;2023-07-13T09:39:03;63.34;59.40;67.59;;
73663;Laerm;61956;52.540;13.382;2023-07-13T09:41:43;63.23;59.98;66.19;;
73663;Laerm;61956;52.540;13.382;2023-07-13T09:44:26;63.31;59.95;66.01;;
73663;Laerm;61956;52.540;13.382;2023-07-13T09:46:59;63.28;59.65;66.64;;
73663;Laerm;61956;52.540;13.382;2023-07-13T09:49:35;63.37;59.39;65.88;;
73663;Laerm;61956;52.540;13.382;2023-07-13T09:52:10;63.28;59.48;66.03;;
73663;Laerm;61956;52.540;13.382;2023-07-13T09:54:44;63.36;59.84;66.11;;
73663;Laerm;61956;52.540;13.382;2023-07-13T09:57:17;63.31;60.32;65.96;;
73663;Laerm;61956;52.540;13.382;2023-07-13T09:59:50;63.15;59.95;67.45;;
73663;Laerm;61956;52.540;13.382;2023-07-13T10:02:29;63.14;59.92;65.92;;
73663;Laerm;61956;52.540;13.382;2023-07-13T10:05:04;62.94;59.53;65.74;;
73663;Laerm;61956;52.540;13.382;2023-07-13T10:07:41;64.74;60.10;76.64;;
73663;Laerm;61956;52.540;13.382;2023-07-13T10:10:17;64.30;60.82;72.70;;
73663;Laerm;61956;52.540;13.382;2023-07-13T10:12:47;63.67;60.32;72.88;;
73663;Laerm;61956;52.540;13.382;2023-07-13T10:15:20;63.53;60.39;71.04;;
73663;Laerm;61956;52.540;13.382;2023-07-13T10:17:56;63.21;60.06;65.98;;
73663;Laerm;61956;52.540;13.382;2023-07-13T10:20:27;63.27;59.72;65.69;;
73663;Laerm;61956;52.540;13.382;2023-07-13T10:23:00;63.41;60.20;66.26;;
73663;Laerm;61956;52.540;13.382;2023-07-13T10:25:34;63.27;59.91;68.87;;
73663;Laerm;61956;52.540;13.382;2023-07-13T10:28:22;63.72;59.91;70.12;;
73663;Laerm;61956;52.540;13.382;2023-07-13T10:30:58;63.66;60.28;69.58;;
73663;Laerm;61956;52.540;13.382;2023-07-13T10:33:31;63.27;60.08;65.75;;
73663;Laerm;61956;52.540;13.382;2023-07-13T10:36:12;63.32;59.22;66.07;;
73663;Laerm;61956;52.540;13.382;2023-07-13T10:38:45;63.31;59.10;67.27;;
73663;Laerm;61956;52.540;13.382;2023-07-13T10:41:20;63.29;60.09;67.76;;
73663;Laerm;61956;52.540;13.382;2023-07-13T10:43:52;63.45;59.64;69.04;;
73663;Laerm;61956;52.540;13.382;2023-07-13T10:46:27;63.39;59.43;69.11;;
73663;Laerm;61956;52.540;13.382;2023-07-13T10:49:04;63.23;59.94;69.77;;
73663;Laerm;61956;52.540;13.382;2023-07-13T10:51:35;63.12;59.98;69.78;;
73663;Laerm;61956;52.540;13.382;2023-07-13T10:54:16;64.95;61.86;68.54;;
73663;Laerm;61956;52.540;13.382;2023-07-13T10:56:52;67.86;62.69;78.40;;
73663;Laerm;61956;52.540;13.382;2023-07-13T10:59:26;65.63;62.05;72.38;;
73663;Laerm;61956;52.540;13.382;2023-07-13T11:02:10;66.75;62.51;78.93;;
73663;Laerm;61956;52.540;13.382;2023-07-13T11:04:54;66.75;62.33;80.23;;
73663;Laerm;61956;52.540;13.382;2023-07-13T11:07:27;64.64;60.25;68.95;;
73663;Laerm;61956;52.540;13.382;2023-07-13T11:10:02;64.84;60.43;71.18;;
73663;Laerm;61956;52.540;13.382;2023-07-13T11:12:52;64.34;61.12;70.62;;
73663;Laerm;61956;52.540;13.382;2023-07-13T11:15:44;64.31;60.91;69.72;;
73663;Laerm;61956;52.540;13.382;2023-07-13T11:18:23;64.23;60.79;69.98;;
73663;Laerm;61956;52.540;13.382;2023-07-13T11:21:13;64.60;61.04;70.71;;
73663;Laerm;61956;52.540;13.382;2023-07-13T11:23:45;63.94;60.91;69.64;;
73663;Laerm;61956;52.540;13.382;2023-07-13T11:26:41;63.98;60.20;69.92;;
73663;Laerm;61956;52.540;13.382;2023-07-13T11:29:32;64.34;60.41;72.93;;
73663;Laerm;61956;52.540;13.382;2023-07-13T11:32:24;64.48;60.93;74.10;;
73663;Laerm;61956;52.540;13.382;2023-07-13T11:34:54;63.29;60.49;70.36;;
73663;Laerm;61956;52.540;13.382;2023-07-13T11:37:29;63.80;60.01;69.62;;
73663;Laerm;61956;52.540;13.382;2023-07-13T11:39:59;64.16;61.08;69.94;;
73663;Laerm;61956;52.540;13.382;2023-07-13T11:42:32;64.32;60.85;70.66;;
73663;Laerm;61956;52.540;13.382;2023-07-13T11:45:18;63.15;60.16;66.34;;
73663;Laerm;61956;52.540;13.382;2023-07-13T11:47:49;63.17;59.35;71.00;;
73663;Laerm;61956;52.540;13.382;2023-07-13T11:50:21;63.10;59.97;66.41;;
73663;Laerm;61956;52.540;13.382;2023-07-13T11:52:55;63.23;59.94;70.49;;
73663;Laerm;61956;52.540;13.382;2023-07-13T11:55:25;63.26;60.27;68.78;;
73663;Laerm;61956;52.540;13.382;2023-07-13T11:57:59;63.32;59.99;66.80;;
73663;Laerm;61956;52.540;13.382;2023-07-13T12:00:32;63.22;60.17;67.19;;
73663;Laerm;61956;52.540;13.382;2023-07-13T12:03:05;63.20;59.68;66.15;;
73663;Laerm;61956;52.540;13.382;2023-07-13T12:05:35;63.34;60.24;71.56;;
73663;Laerm;61956;52.540;13.382;2023-07-13T12:08:11;65.02;60.09;75.05;;
73663;Laerm;61956;52.540;13.382;2023-07-13T12:10:40;63.79;60.18;71.05;;
73663;Laerm;61956;52.540;13.382;2023-07-13T12:13:13;63.91;60.04;73.57;;
73663;Laerm;61956;52.540;13.382;2023-07-13T12:15:45;64.77;60.55;70.69;;
73663;Laerm;61956;52.540;13.382;2023-07-13T12:18:19;63.89;60.76;71.39;;
73663;Laerm;61956;52.540;13.382;2023-07-13T12:20:51;63.33;58.95;66.38;;
73663;Laerm;61956;52.540;13.382;2023-07-13T12:23:28;63.28;59.68;65.93;;
73663;Laerm;61956;52.540;13.382;2023-07-13T12:26:01;63.39;59.72;66.18;;
73663;Laerm;61956;52.540;13.382;2023-07-13T12:28:36;63.48;60.21;66.46;;
73663;Laerm;61956;52.540;13.382;2023-07-13T12:31:22;63.22;59.82;67.15;;
73663;Laerm;61956;52.540;13.382;2023-07-13T12:34:01;63.31;59.08;65.57;;
73663;Laerm;61956;52.540;13.382;2023-07-13T12:36:36;63.44;59.78;70.65;;
73663;Laerm;61956;52.540;13.382;2023-07-13T12:39:22;63.23;59.91;65.73;;
73663;Laerm;61956;52.540;13.382;2023-07-13T12:41:53;63.30;60.05;65.89;;
73663;Laerm;61956;52.540;13.382;2023-07-13T12:44:30;63.36;60.06;65.68;;
73663;Laerm;61956;52.540;13.382;2023-07-13T12:47:09;63.33;59.23;65.83;;
73663;Laerm;61956;52.540;13.382;2023-07-13T12:49:43;63.49;59.78;66.34;;
73663;Laerm;61956;52.540;13.382;2023-07-13T12:53:01;62.89;59.38;66.05;;
73663;Laerm;61956;52.540;13.382;2023-07-13T12:55:42;63.19;59.74;68.49;;
73663;Laerm;61956;52.540;13.382;2023-07-13T12:58:25;64.38;59.14;93.53;;
73663;Laerm;61956;52.540;13.382;2023-07-13T13:00:58;80.59;58.89;99.93;;
73663;Laerm;61956;52.540;13.382;2023-07-13T13:03:32;80.66;59.14;98.19;;
73663;Laerm;61956;52.540;13.382;2023-07-13T13:06:06;62.24;61.01;64.47;;
73663;Laerm;61956;52.540;13.382;2023-07-13T13:08:38;62.33;61.30;63.75;;
73663;Laerm;61956;52.540;13.382;2023-07-13T13:11:09;63.70;61.43;67.00;;
73663;Laerm;61956;52.540;13.382;2023-07-13T13:13:38;67.96;61.13;85.60;;
73663;Laerm;61956;52.540;13.382;2023-07-13T13:16:11;64.61;61.47;93.12;;
73663;Laerm;61956;52.540;13.382;2023-07-13T13:18:41;64.21;61.61;72.13;;
73663;Laerm;61956;52.540;13.382;2023-07-13T13:21:11;63.23;61.54;69.47;;
73663;Laerm;61956;52.540;13.382;2023-07-13T13:23:42;62.73;61.63;66.30;;
73663;Laerm;61956;52.540;13.382;2023-07-13T13:26:15;63.11;61.81;65.41;;
73663;Laerm;61956;52.540;13.382;2023-07-13T13:28:45;62.86;61.46;66.09;;
73663;Laerm;61956;52.540;13.382;2023-07-13T13:31:14;63.03;61.35;68.49;;
73663;Laerm;61956;52.540;13.382;2023-07-13T13:33:45;62.80;61.54;72.58;;
73663;Laerm;61956;52.540;13.382;2023-07-13T13:36:18;63.35;61.12;66.16;;
73663;Laerm;61956;52.540;13.382;2023-07-13T13:38:51;62.86;61.46;65.33;;
73663;Laerm;61956;52.540;13.382;2023-07-13T13:41:23;62.77;61.54;72.26;;
73663;Laerm;61956;52.540;13.382;2023-07-13T13:43:52;64.42;61.51;91.83;;
73663;Laerm;61956;52.540;13.382;2023-07-13T13:46:24;62.72;60.83;64.23;;
73663;Laerm;61956;52.540;13.382;2023-07-13T13:48:57;62.95;61.73;64.67;;
73663;Laerm;61956;52.540;13.382;2023-07-13T13:51:26;62.92;61.73;66.91;;
73663;Laerm;61956;52.540;13.382;2023-07-13T13:53:58;62.68;61.32;63.88;;
73663;Laerm;61956;52.540;13.382;2023-07-13T13:56:28;62.66;61.60;67.27;;
73663;Laerm;61956;52.540;13.382;2023-07-13T13:58:57;62.87;61.68;67.31;;
73663;Laerm;61956;52.540;13.382;2023-07-13T14:01:27;62.94;61.66;66.41;;
73663;Laerm;61956;52.540;13.382;2023-07-13T14:03:57;62.81;61.55;67.03;;